Aviation Digital Data Service (ADDS)

Output produced by METARs form (0343 UTC 23 November 2017)
found at http://www.aviationweather.gov/adds/metars/
 
VCBI 230310Z 04005KT 350V070 9999 FEW017 27/24 Q1010 NOSIG
TAF VCBI 230340Z 2306/2412 03006KT 9999 FEW018 TX31/2307Z TN24/2400Z 
     PROB40 
     TEMPO 2309/2315 6000 -TSRA/SHRA FEW012 SCT016 FEW020CB BKN080